Time,TemperatureF,DewpointF,PressureIn,WindDirection,WindDirectionDegrees,WindSpeedMPH,WindSpeedGustMPH,Humidity,HourlyPrecipIn,Conditions,Clouds,dailyrainin,SoftwareType,DateUTC
2013-04-15 00:00:00,79.6,72.6,29.94,SSE,158,0.0,0.0,79,0.00,,,0.00,WUHU216HW,2013-04-15 04:00:00,
2013-04-15 00:01:00,79.6,72.6,29.94,SSE,158,0.0,0.0,79,0.00,,,0.00,WUHU216HW,2013-04-15 04:01:00,
2013-04-15 00:02:00,79.6,72.6,29.94,SSE,158,0.0,0.0,79,0.00,,,0.00,WUHU216HW,2013-04-15 04:02:00,
2013-04-15 00:07:00,79.6,72.6,29.94,SSE,158,0.0,0.0,79,0.00,,,0.00,WUHU216HW,2013-04-15 04:07:00,
2013-04-15 00:30:00,79.4,72.7,29.94,NNE,23,0.2,0.2,80,0.00,,,0.00,WUHU216HW,2013-04-15 04:30:00,
2013-04-15 00:35:00,79.4,72.7,29.94,NNE,23,0.2,0.2,80,0.00,,,0.00,WUHU216HW,2013-04-15 04:35:00,
2013-04-15 01:00:00,79.0,72.7,29.93,SSE,158,0.4,0.4,81,0.01,,,0.00,WUHU216HW,2013-04-15 05:00:00,
2013-04-15 01:05:00,79.0,72.7,29.93,SSE,158,0.4,0.4,81,0.01,,,0.00,WUHU216HW,2013-04-15 05:05:00,
2013-04-15 01:30:00,78.5,72.9,29.93,ESE,113,0.2,0.2,83,0.01,,,0.02,WUHU216HW,2013-04-15 05:30:00,
2013-04-15 01:35:00,78.5,72.9,29.93,ESE,113,0.2,0.2,83,0.01,,,0.02,WUHU216HW,2013-04-15 05:35:00,
2013-04-15 02:00:00,78.7,73.1,29.92,ENE,68,0.7,0.7,83,0.00,,,0.02,WUHU216HW,2013-04-15 06:00:00,
2013-04-15 02:05:00,78.7,73.1,29.92,ENE,68,0.7,0.7,83,0.00,,,0.02,WUHU216HW,2013-04-15 06:05:00,
2013-04-15 02:30:00,78.3,72.7,29.92,SSE,158,0.4,0.4,83,0.00,,,0.02,WUHU216HW,2013-04-15 06:30:00,
2013-04-15 02:35:00,78.3,72.7,29.92,SSE,158,0.4,0.4,83,0.00,,,0.02,WUHU216HW,2013-04-15 06:35:00,
2013-04-15 02:59:00,78.1,72.9,29.91,ESE,113,0.0,0.0,84,0.00,,,0.02,WUHU216HW,2013-04-15 06:59:00,
2013-04-15 03:00:00,78.1,72.9,29.91,ESE,113,0.0,0.0,84,0.00,,,0.02,WUHU216HW,2013-04-15 07:00:00,
2013-04-15 03:05:00,78.1,72.9,29.91,ESE,113,0.0,0.0,84,0.00,,,0.02,WUHU216HW,2013-04-15 07:05:00,
2013-04-15 03:30:00,78.1,72.9,29.92,ENE,68,0.9,0.9,84,0.00,,,0.02,WUHU216HW,2013-04-15 07:30:00,
2013-04-15 03:59:00,77.6,72.4,29.92,North,0,0.2,0.2,84,0.00,,,0.02,WUHU216HW,2013-04-15 07:59:00,
2013-04-15 04:00:00,77.6,72.4,29.92,North,0,0.2,0.2,84,0.00,,,0.02,WUHU216HW,2013-04-15 08:00:00,
2013-04-15 04:06:00,77.6,72.4,29.92,North,0,0.2,0.2,84,0.00,,,0.02,WUHU216HW,2013-04-15 08:06:00,
2013-04-15 04:30:00,74.2,67.7,29.93,NNW,338,4.9,4.9,80,0.00,,,0.02,WUHU216HW,2013-04-15 08:30:00,
2013-04-15 04:35:00,74.2,67.7,29.93,NNW,338,4.9,4.9,80,0.00,,,0.02,WUHU216HW,2013-04-15 08:35:00,
2013-04-15 04:36:00,74.2,67.7,29.93,NNW,338,4.9,4.9,80,0.00,,,0.02,WUHU216HW,2013-04-15 08:36:00,
2013-04-15 04:59:00,72.4,66.3,29.93,NNW,338,5.1,5.1,81,0.06,,,0.02,WUHU216HW,2013-04-15 08:59:00,
2013-04-15 05:00:00,72.4,66.3,29.93,NNW,338,5.1,5.1,81,0.06,,,0.02,WUHU216HW,2013-04-15 09:00:00,
2013-04-15 05:03:00,72.4,66.3,29.93,NNW,338,5.1,5.1,81,0.06,,,0.02,WUHU216HW,2013-04-15 09:03:00,
2013-04-15 05:08:00,72.4,66.3,29.93,NNW,338,5.1,5.1,81,0.06,,,0.02,WUHU216HW,2013-04-15 09:08:00,
2013-04-15 05:29:00,70.9,65.4,29.94,NNE,23,2.5,2.5,83,0.12,,,0.08,WUHU216HW,2013-04-15 09:29:00,
2013-04-15 05:30:00,70.9,65.4,29.94,NNE,23,2.5,2.5,83,0.12,,,0.08,WUHU216HW,2013-04-15 09:30:00,
2013-04-15 05:35:00,70.9,65.4,29.94,NNE,23,2.5,2.5,83,0.12,,,0.08,WUHU216HW,2013-04-15 09:35:00,
2013-04-15 05:59:00,70.4,65.3,29.94,North,0,5.8,5.8,84,0.06,,,0.14,WUHU216HW,2013-04-15 09:59:00,
2013-04-15 06:00:00,70.4,65.3,29.94,North,0,5.8,5.8,84,0.06,,,0.14,WUHU216HW,2013-04-15 10:00:00,
2013-04-15 06:05:00,70.4,65.3,29.94,North,0,5.8,5.8,84,0.06,,,0.14,WUHU216HW,2013-04-15 10:05:00,
2013-04-15 06:29:00,70.7,65.6,29.95,NNW,338,3.4,3.4,84,0.00,,,0.14,WUHU216HW,2013-04-15 10:29:00,
2013-04-15 06:30:00,70.7,65.6,29.95,NNW,338,3.4,3.4,84,0.00,,,0.14,WUHU216HW,2013-04-15 10:30:00,
2013-04-15 06:35:00,70.7,65.6,29.95,NNW,338,3.4,3.4,84,0.00,,,0.14,WUHU216HW,2013-04-15 10:35:00,
2013-04-15 06:59:00,70.6,65.1,29.96,North,0,2.9,2.9,83,0.00,,,0.14,WUHU216HW,2013-04-15 10:59:00,
2013-04-15 07:00:00,70.6,65.1,29.96,North,0,2.9,2.9,83,0.00,,,0.14,WUHU216HW,2013-04-15 11:00:00,
2013-04-15 07:05:00,70.6,65.1,29.96,North,0,2.9,2.9,83,0.00,,,0.14,WUHU216HW,2013-04-15 11:05:00,
2013-04-15 07:29:00,71.3,65.5,29.96,East,90,0.7,0.7,82,0.00,,,0.14,WUHU216HW,2013-04-15 11:29:00,
2013-04-15 07:30:00,71.3,65.5,29.96,East,90,0.7,0.7,82,0.00,,,0.14,WUHU216HW,2013-04-15 11:30:00,
2013-04-15 07:35:00,71.3,65.5,29.96,East,90,0.7,0.7,82,0.00,,,0.14,WUHU216HW,2013-04-15 11:35:00,
2013-04-15 07:59:00,71.5,65.7,29.96,NNE,23,0.2,0.2,82,0.00,,,0.14,WUHU216HW,2013-04-15 11:59:00,
2013-04-15 08:00:00,71.5,65.7,29.96,NNE,23,0.2,0.2,82,0.00,,,0.14,WUHU216HW,2013-04-15 12:00:00,
2013-04-15 08:05:00,71.5,65.7,29.96,NNE,23,0.2,0.2,82,0.00,,,0.14,WUHU216HW,2013-04-15 12:05:00,
2013-04-15 08:29:00,72.2,66.4,29.97,ESE,113,1.3,1.3,82,0.00,,,0.14,WUHU216HW,2013-04-15 12:29:00,
2013-04-15 08:30:00,72.2,66.4,29.97,ESE,113,1.3,1.3,82,0.00,,,0.14,WUHU216HW,2013-04-15 12:30:00,
2013-04-15 08:35:00,72.2,66.4,29.97,ESE,113,1.3,1.3,82,0.00,,,0.14,WUHU216HW,2013-04-15 12:35:00,
2013-04-15 08:59:00,73.3,67.8,29.97,ESE,113,2.9,2.9,83,0.00,,,0.14,WUHU216HW,2013-04-15 12:59:00,
2013-04-15 09:01:00,73.3,67.8,29.97,ESE,113,2.9,2.9,83,0.00,,,0.14,WUHU216HW,2013-04-15 13:01:00,
2013-04-15 09:06:00,73.3,67.8,29.97,ESE,113,2.9,2.9,83,0.00,,,0.14,WUHU216HW,2013-04-15 13:06:00,
2013-04-15 09:29:00,75.4,69.6,29.98,ENE,68,0.4,0.4,82,0.00,,,0.14,WUHU216HW,2013-04-15 13:29:00,
2013-04-15 09:30:00,75.4,69.6,29.98,ENE,68,0.4,0.4,82,0.00,,,0.14,WUHU216HW,2013-04-15 13:30:00,
2013-04-15 09:35:00,75.4,69.6,29.98,ENE,68,0.4,0.4,82,0.00,,,0.14,WUHU216HW,2013-04-15 13:35:00,
2013-04-15 10:00:00,77.8,71.1,29.97,East,90,0.4,0.4,80,0.00,,,0.14,WUHU216HW,2013-04-15 14:00:00,
2013-04-15 10:05:00,77.8,71.1,29.97,East,90,0.4,0.4,80,0.00,,,0.14,WUHU216HW,2013-04-15 14:05:00,
2013-04-15 10:30:00,80.5,73.0,29.98,ESE,113,2.0,2.0,78,0.00,,,0.14,WUHU216HW,2013-04-15 14:30:00,
2013-04-15 10:35:00,80.5,73.0,29.98,ESE,113,2.0,2.0,78,0.00,,,0.14,WUHU216HW,2013-04-15 14:35:00,
2013-04-15 11:00:00,82.8,74.9,29.98,SE,135,1.6,1.6,77,0.00,,,0.14,WUHU216HW,2013-04-15 15:00:00,
2013-04-15 11:05:00,82.8,74.9,29.98,SE,135,1.6,1.6,77,0.00,,,0.14,WUHU216HW,2013-04-15 15:05:00,
2013-04-15 11:30:00,85.1,76.0,29.97,SSE,158,3.4,3.4,74,0.00,,,0.14,WUHU216HW,2013-04-15 15:30:00,
2013-04-15 11:31:00,85.1,76.0,29.97,SSE,158,3.4,3.4,74,0.00,,,0.14,WUHU216HW,2013-04-15 15:31:00,
2013-04-15 11:36:00,85.1,76.0,29.97,SSE,158,3.4,3.4,74,0.00,,,0.14,WUHU216HW,2013-04-15 15:36:00,
2013-04-15 12:00:00,87.5,77.0,29.97,SE,135,0.7,0.7,71,0.00,,,0.14,WUHU216HW,2013-04-15 16:00:00,
2013-04-15 12:05:00,87.5,77.0,29.97,SE,135,0.7,0.7,71,0.00,,,0.14,WUHU216HW,2013-04-15 16:05:00,
2013-04-15 12:30:00,88.4,76.5,29.96,ENE,68,0.4,0.4,68,0.00,,,0.14,WUHU216HW,2013-04-15 16:30:00,
2013-04-15 12:35:00,88.4,76.5,29.96,ENE,68,0.4,0.4,68,0.00,,,0.14,WUHU216HW,2013-04-15 16:35:00,
2013-04-15 13:00:00,89.3,77.0,29.96,SW,225,1.3,1.3,67,0.00,,,0.14,WUHU216HW,2013-04-15 17:00:00,
2013-04-15 13:05:00,89.3,77.0,29.96,SW,225,1.3,1.3,67,0.00,,,0.14,WUHU216HW,2013-04-15 17:05:00,
2013-04-15 13:30:00,90.7,78.7,29.96,SSW,203,0.7,0.7,68,0.00,,,0.14,WUHU216HW,2013-04-15 17:30:00,
2013-04-15 13:32:00,90.7,78.7,29.96,SSW,203,0.7,0.7,68,0.00,,,0.14,WUHU216HW,2013-04-15 17:32:00,
2013-04-15 13:35:00,90.7,78.7,29.96,SSW,203,0.7,0.7,68,0.00,,,0.14,WUHU216HW,2013-04-15 17:35:00,
2013-04-15 14:00:00,90.9,78.4,29.96,NW,315,4.5,4.5,67,0.00,,,0.14,WUHU216HW,2013-04-15 18:00:00,
2013-04-15 14:05:00,90.9,78.4,29.96,NW,315,4.5,4.5,67,0.00,,,0.14,WUHU216HW,2013-04-15 18:05:00,
2013-04-15 14:30:00,91.4,78.8,29.96,West,270,4.9,4.9,67,0.00,,,0.14,WUHU216HW,2013-04-15 18:30:00,
2013-04-15 14:31:00,91.4,78.8,29.96,West,270,4.9,4.9,67,0.00,,,0.14,WUHU216HW,2013-04-15 18:31:00,
2013-04-15 14:32:00,91.4,78.8,29.96,West,270,4.9,4.9,67,0.00,,,0.14,WUHU216HW,2013-04-15 18:32:00,
2013-04-15 14:37:00,91.4,78.8,29.96,West,270,4.9,4.9,67,0.00,,,0.14,WUHU216HW,2013-04-15 18:37:00,
2013-04-15 15:00:00,91.3,78.8,29.94,NNW,338,0.4,0.4,67,0.00,,,0.14,WUHU216HW,2013-04-15 19:00:00,
2013-04-15 15:05:00,91.3,78.8,29.94,NNW,338,0.4,0.4,67,0.00,,,0.14,WUHU216HW,2013-04-15 19:05:00,
2013-04-15 15:30:00,91.4,77.1,29.93,SW,225,2.7,2.7,63,0.00,,,0.14,WUHU216HW,2013-04-15 19:30:00,
2013-04-15 15:35:00,91.4,77.1,29.93,SW,225,2.7,2.7,63,0.00,,,0.14,WUHU216HW,2013-04-15 19:35:00,
2013-04-15 15:59:00,91.3,76.9,29.92,WSW,248,1.1,1.1,63,0.00,,,0.14,WUHU216HW,2013-04-15 19:59:00,
2013-04-15 16:00:00,91.3,76.9,29.92,WSW,248,1.1,1.1,63,0.00,,,0.14,WUHU216HW,2013-04-15 20:00:00,
2013-04-15 16:01:00,91.3,76.9,29.92,WSW,248,1.1,1.1,63,0.00,,,0.14,WUHU216HW,2013-04-15 20:01:00,
2013-04-15 16:02:00,91.3,76.9,29.92,WSW,248,1.1,1.1,63,0.00,,,0.14,WUHU216HW,2013-04-15 20:02:00,
2013-04-15 16:03:00,91.3,76.9,29.92,WSW,248,1.1,1.1,63,0.00,,,0.14,WUHU216HW,2013-04-15 20:03:00,
2013-04-15 16:04:00,91.3,76.9,29.92,WSW,248,1.1,1.1,63,0.00,,,0.14,WUHU216HW,2013-04-15 20:04:00,
2013-04-15 16:09:00,91.3,76.9,29.92,WSW,248,1.1,1.1,63,0.00,,,0.14,WUHU216HW,2013-04-15 20:09:00,
2013-04-15 16:30:00,91.3,75.9,29.92,South,180,0.7,0.7,61,0.00,,,0.14,WUHU216HW,2013-04-15 20:30:00,
2013-04-15 16:35:00,91.3,75.9,29.92,South,180,0.7,0.7,61,0.00,,,0.14,WUHU216HW,2013-04-15 20:35:00,
2013-04-15 16:59:00,90.4,76.1,29.93,ESE,113,0.9,0.9,63,0.00,,,0.14,WUHU216HW,2013-04-15 20:59:00,
2013-04-15 17:00:00,90.4,76.1,29.93,ESE,113,0.9,0.9,63,0.00,,,0.14,WUHU216HW,2013-04-15 21:00:00,
2013-04-15 17:05:00,90.4,76.1,29.93,ESE,113,0.9,0.9,63,0.00,,,0.14,WUHU216HW,2013-04-15 21:05:00,
2013-04-15 17:30:00,90.2,75.9,29.93,SW,225,0.9,0.9,63,0.00,,,0.14,WUHU216HW,2013-04-15 21:30:00,
2013-04-15 17:35:00,90.2,75.9,29.93,SW,225,0.9,0.9,63,0.00,,,0.14,WUHU216HW,2013-04-15 21:35:00,
2013-04-15 17:59:00,89.8,75.5,29.94,West,270,1.1,1.1,63,0.00,,,0.14,WUHU216HW,2013-04-15 21:59:00,
2013-04-15 18:00:00,89.8,75.5,29.94,West,270,1.1,1.1,63,0.00,,,0.14,WUHU216HW,2013-04-15 22:00:00,
2013-04-15 18:05:00,89.8,75.5,29.94,West,270,1.1,1.1,63,0.00,,,0.14,WUHU216HW,2013-04-15 22:05:00,
2013-04-15 18:30:00,89.5,74.8,29.94,SE,135,0.2,0.2,62,0.00,,,0.14,WUHU216HW,2013-04-15 22:30:00,
2013-04-15 18:35:00,89.5,74.8,29.94,SE,135,0.2,0.2,62,0.00,,,0.14,WUHU216HW,2013-04-15 22:35:00,
2013-04-15 18:59:00,87.1,73.4,29.96,SW,225,0.7,0.7,64,0.00,,,0.14,WUHU216HW,2013-04-15 22:59:00,
2013-04-15 19:00:00,87.1,73.4,29.96,SW,225,0.7,0.7,64,0.00,,,0.14,WUHU216HW,2013-04-15 23:00:00,
2013-04-15 19:05:00,87.1,73.4,29.96,SW,225,0.7,0.7,64,0.00,,,0.14,WUHU216HW,2013-04-15 23:05:00,
2013-04-15 19:30:00,86.0,73.8,29.97,SW,225,0.0,0.0,67,0.00,,,0.14,WUHU216HW,2013-04-15 23:30:00,
2013-04-15 19:35:00,86.0,73.8,29.97,SW,225,0.0,0.0,67,0.00,,,0.14,WUHU216HW,2013-04-15 23:35:00,
2013-04-15 20:00:00,85.5,73.8,29.99,WSW,248,0.2,0.2,68,0.00,,,0.14,WUHU216HW,2013-04-16 00:00:00,
2013-04-15 20:05:00,85.5,73.8,29.99,WSW,248,0.2,0.2,68,0.00,,,0.14,WUHU216HW,2013-04-16 00:05:00,
2013-04-15 20:30:00,84.2,73.8,30.00,West,270,0.4,0.4,71,0.00,,,0.14,WUHU216HW,2013-04-16 00:30:00,
2013-04-15 20:35:00,84.2,73.8,30.00,West,270,0.4,0.4,71,0.00,,,0.14,WUHU216HW,2013-04-16 00:35:00,
2013-04-15 20:59:00,83.2,73.2,30.01,NNE,23,2.7,2.7,72,0.00,,,0.14,WUHU216HW,2013-04-16 00:59:00,
2013-04-15 21:00:00,83.2,73.2,30.01,NNE,23,2.7,2.7,72,0.00,,,0.14,WUHU216HW,2013-04-16 01:00:00,
2013-04-15 21:05:00,83.2,73.2,30.01,NNE,23,2.7,2.7,72,0.00,,,0.14,WUHU216HW,2013-04-16 01:05:00,
2013-04-15 21:30:00,81.5,71.6,30.03,NE,45,1.6,1.6,72,0.00,,,0.14,WUHU216HW,2013-04-16 01:30:00,
2013-04-15 21:35:00,81.5,71.6,30.03,NE,45,1.6,1.6,72,0.00,,,0.14,WUHU216HW,2013-04-16 01:35:00,
2013-04-15 22:00:00,79.9,70.5,30.04,ESE,113,1.3,1.3,73,0.00,,,0.14,WUHU216HW,2013-04-16 02:00:00,
2013-04-15 22:05:00,79.9,70.5,30.04,ESE,113,1.3,1.3,73,0.00,,,0.14,WUHU216HW,2013-04-16 02:05:00,
2013-04-15 22:30:00,79.2,70.6,30.04,SSE,158,0.4,0.4,75,0.00,,,0.14,WUHU216HW,2013-04-16 02:30:00,
2013-04-15 22:35:00,79.2,70.6,30.04,SSE,158,0.4,0.4,75,0.00,,,0.14,WUHU216HW,2013-04-16 02:35:00,
2013-04-15 23:30:00,78.5,70.3,30.04,SSE,158,0.4,0.4,76,0.00,,,0.14,WUHU216HW,2013-04-16 03:30:00,
2013-04-15 23:35:00,78.5,70.3,30.04,SSE,158,0.4,0.4,76,0.00,,,0.14,WUHU216HW,2013-04-16 03:35:00,